createdAt,value
2023-03-21T02:27:47.118Z,99.90
2023-03-21T02:30:52.012Z,99.90
2023-03-21T02:33:22.402Z,99.90
2023-03-21T02:35:54.137Z,99.90
2023-03-21T02:38:54.605Z,99.90
2023-03-21T02:41:42.918Z,99.90
2023-03-21T02:44:24.347Z,99.90
2023-03-21T02:47:06.592Z,99.90
2023-03-21T02:49:45.578Z,99.90
2023-03-21T02:52:28.243Z,99.90
2023-03-21T02:55:01.145Z,99.90
2023-03-21T02:57:40.125Z,99.90
2023-03-21T03:00:16.618Z,99.90
2023-03-21T03:02:44.169Z,99.90
2023-03-21T03:05:21.572Z,99.90
2023-03-21T03:07:57.687Z,99.90
2023-03-21T03:10:40.173Z,99.90
2023-03-21T03:13:25.815Z,99.90
2023-03-21T03:16:18.503Z,99.90
2023-03-21T03:18:59.661Z,99.90
2023-03-21T03:21:37.943Z,99.90
2023-03-21T03:24:10.934Z,99.90
2023-03-21T03:27:03.710Z,99.90
2023-03-21T03:29:32.770Z,99.90
2023-03-21T03:32:15.418Z,99.90
2023-03-21T03:34:49.632Z,99.90
2023-03-21T03:37:19.006Z,99.90
2023-03-21T03:39:52.160Z,99.90
2023-03-21T03:42:28.755Z,99.90
2023-03-21T03:44:56.599Z,99.90
2023-03-21T03:47:56.710Z,99.90
2023-03-21T03:50:32.716Z,99.90
2023-03-21T03:53:18.087Z,99.90
2023-03-21T03:55:46.234Z,99.90
2023-03-21T03:58:22.853Z,99.90
2023-03-21T04:00:51.902Z,99.90
2023-03-21T04:03:19.073Z,99.90
2023-03-21T04:05:46.402Z,99.90
2023-03-21T04:08:17.323Z,99.90
2023-03-21T04:10:44.511Z,99.90
2023-03-21T04:13:11.679Z,99.90
2023-03-21T04:15:38.513Z,99.90
2023-03-21T04:18:06.133Z,99.90
2023-03-21T04:20:37.321Z,99.90
2023-03-21T04:23:05.543Z,99.90
2023-03-21T04:25:38.739Z,99.90
2023-03-21T04:28:07.397Z,99.90
2023-03-21T04:30:34.472Z,99.90
2023-03-21T04:33:01.627Z,99.90
2023-03-21T04:35:28.874Z,99.00
2023-03-21T04:37:56.227Z,98.00
2023-03-21T04:40:24.935Z,97.60
2023-03-21T04:42:52.746Z,97.00
2023-03-21T04:45:19.659Z,99.90
2023-03-21T04:47:46.573Z,99.90
2023-03-21T04:50:13.892Z,99.90
2023-03-21T04:52:40.861Z,99.90
2023-03-21T04:55:10.268Z,99.90
2023-03-21T04:57:38.383Z,99.90
2023-03-21T05:00:25.797Z,99.90
2023-03-21T05:02:52.719Z,98.50
2023-03-21T05:05:19.604Z,97.90
2023-03-21T05:07:46.467Z,97.50
2023-03-21T05:10:13.388Z,97.20
2023-03-21T05:12:40.544Z,97.20
2023-03-21T05:15:08.356Z,97.20
2023-03-21T05:17:35.248Z,97.60
2023-03-21T05:20:02.163Z,97.90
2023-03-21T05:22:29.182Z,99.10
2023-03-21T05:24:56.079Z,99.90
2023-03-21T05:27:38.630Z,99.90
2023-03-21T05:30:09.417Z,99.90
2023-03-21T05:32:36.548Z,99.90
2023-03-21T05:35:04.064Z,99.90
2023-03-21T05:37:30.862Z,99.90
2023-03-21T05:39:57.728Z,99.90
2023-03-21T05:42:25.178Z,99.90
2023-03-21T05:44:52.297Z,99.90
2023-03-21T05:47:19.839Z,99.90
2023-03-21T05:49:47.297Z,99.90
2023-03-21T05:52:14.258Z,99.90
2023-03-21T05:54:41.195Z,99.90
2023-03-21T05:57:08.318Z,99.90
2023-03-21T05:59:36.272Z,99.90
2023-03-21T06:02:03.377Z,99.90
2023-03-21T06:04:30.429Z,99.90
2023-03-21T06:06:57.242Z,97.90
2023-03-21T06:09:24.721Z,94.70
2023-03-21T06:11:54.701Z,94.20
2023-03-21T06:14:21.594Z,92.10
2023-03-21T06:16:48.488Z,94.20
2023-03-21T06:19:15.694Z,97.80
2023-03-21T06:21:42.953Z,99.80
2023-03-21T06:24:10.353Z,99.90
2023-03-21T06:26:37.357Z,99.90
2023-03-21T06:29:04.520Z,99.90
2023-03-21T06:31:31.724Z,99.90
2023-03-21T06:33:58.576Z,99.90
2023-03-21T06:36:25.477Z,99.60
2023-03-21T06:38:52.277Z,93.50
2023-03-21T06:41:19.158Z,90.50
2023-03-21T06:43:46.227Z,89.50
2023-03-21T06:46:13.456Z,87.30
2023-03-21T06:48:44.606Z,78.00
2023-03-21T06:51:13.017Z,79.10
2023-03-21T06:53:41.517Z,77.40
2023-03-21T06:56:09.730Z,75.80
2023-03-21T06:58:36.792Z,72.40
2023-03-21T07:01:08.223Z,71.60
2023-03-21T07:03:35.445Z,70.60
2023-03-21T07:06:13.694Z,69.60
2023-03-21T07:08:41.650Z,66.80
2023-03-21T07:11:09.661Z,65.60
2023-03-21T07:13:36.859Z,64.10
2023-03-21T07:16:03.860Z,61.40
2023-03-21T07:18:31.098Z,60.60
2023-03-21T07:20:58.664Z,59.30
2023-03-21T07:23:26.432Z,59.70
2023-03-21T07:25:54.013Z,58.60
2023-03-21T07:28:22.114Z,60.20
2023-03-21T07:30:54.560Z,60.50
2023-03-21T07:33:23.089Z,59.00
2023-03-21T07:35:55.547Z,57.40
2023-03-21T07:38:22.403Z,56.60
2023-03-21T07:40:49.561Z,56.60
2023-03-21T07:45:49.160Z,54.90
2023-03-21T07:48:18.162Z,54.60
2023-03-21T07:50:44.962Z,53.70
2023-03-21T07:53:11.780Z,53.60
2023-03-21T07:55:38.859Z,53.60
2023-03-21T07:58:06.110Z,54.40
2023-03-21T08:00:33.336Z,53.10
2023-03-21T08:03:01.118Z,52.60
2023-03-21T08:05:31.256Z,52.80
2023-03-21T08:07:58.133Z,53.50
2023-03-21T08:10:25.652Z,52.90
2023-03-21T08:12:52.690Z,53.40
2023-03-21T08:15:19.591Z,53.60
2023-03-21T08:17:46.521Z,53.80
2023-03-21T08:20:18.089Z,54.00
2023-03-21T08:22:45.424Z,52.60
2023-03-21T08:25:13.993Z,52.80
2023-03-21T08:27:42.670Z,53.00
2023-03-21T08:30:12.485Z,52.40
2023-03-21T08:32:40.354Z,52.70
2023-03-21T08:35:10.236Z,52.00
2023-03-21T08:37:41.354Z,51.60
2023-03-21T08:40:13.335Z,50.60
2023-03-21T08:42:44.297Z,50.70
2023-03-21T08:45:12.925Z,51.30
2023-03-21T08:47:40.359Z,52.00
2023-03-21T08:50:11.306Z,52.20
2023-03-21T08:52:38.111Z,52.20
2023-03-21T08:55:05.669Z,51.70
2023-03-21T08:57:32.584Z,51.20
2023-03-21T08:59:59.497Z,50.70
2023-03-21T09:02:27.050Z,51.10
2023-03-21T09:04:55.095Z,50.60
2023-03-21T09:07:22.319Z,50.10
2023-03-21T09:10:08.094Z,52.40
2023-03-21T09:12:41.286Z,52.80
2023-03-21T09:15:10.146Z,52.70
2023-03-21T09:17:36.995Z,53.60
2023-03-21T09:20:11.267Z,54.20
2023-03-21T09:22:41.896Z,54.20
2023-03-21T09:25:11.391Z,55.20
2023-03-21T09:27:38.379Z,54.20
2023-03-21T09:30:07.255Z,53.70
2023-03-21T09:32:35.018Z,54.90
2023-03-21T09:35:02.174Z,55.80
2023-03-21T09:37:29.369Z,55.10
2023-03-21T09:39:58.286Z,54.40
2023-03-21T09:42:56.914Z,55.10
2023-03-21T09:46:11.451Z,55.10
2023-03-21T09:48:56.856Z,56.60
2023-03-21T09:51:28.711Z,58.10
2023-03-21T09:53:57.784Z,56.60
2023-03-21T09:56:26.209Z,55.40
2023-03-21T09:58:59.505Z,57.20
2023-03-21T10:01:33.095Z,58.50
2023-03-21T10:04:06.667Z,55.50
2023-03-21T10:06:40.207Z,53.90
2023-03-21T10:09:23.737Z,56.00
2023-03-21T10:12:16.490Z,56.20
2023-03-21T10:14:50.131Z,54.70
2023-03-21T10:17:33.803Z,54.60
2023-03-21T10:20:18.071Z,54.10
2023-03-21T10:22:47.618Z,54.10
2023-03-21T10:25:19.673Z,56.40
2023-03-21T10:27:48.192Z,56.60
2023-03-21T10:30:36.707Z,53.70
2023-03-21T10:33:09.663Z,56.30
2023-03-21T10:35:40.152Z,57.00
2023-03-21T10:38:15.720Z,56.90
2023-03-21T10:40:42.657Z,54.20
2023-03-21T10:43:20.483Z,53.80
2023-03-21T10:45:48.539Z,52.00
2023-03-21T10:48:15.574Z,51.60
2023-03-21T10:50:46.935Z,52.50
2023-03-21T10:53:43.078Z,52.50
2023-03-21T10:56:11.983Z,54.30
2023-03-21T10:58:44.713Z,52.40
2023-03-21T11:01:26.087Z,51.40
2023-03-21T11:03:58.127Z,52.00
2023-03-21T11:06:33.421Z,52.60
2023-03-21T11:09:14.578Z,52.10
2023-03-21T11:12:14.761Z,49.30
2023-03-21T11:14:44.695Z,51.90
2023-03-21T11:17:17.650Z,51.80
2023-03-21T11:20:11.306Z,50.20
2023-03-21T11:22:43.523Z,50.60
2023-03-21T11:25:25.488Z,50.80
2023-03-21T11:27:54.918Z,52.10
2023-03-21T11:30:27.325Z,49.10
2023-03-21T11:33:03.356Z,49.30
2023-03-21T11:35:39.267Z,50.50
2023-03-21T11:38:23.225Z,50.30
2023-03-21T11:40:56.588Z,48.60
2023-03-21T11:43:27.605Z,50.90
2023-03-21T11:46:07.169Z,49.20
2023-03-21T11:48:55.515Z,48.60
2023-03-21T11:51:33.075Z,49.50
2023-03-21T11:54:20.842Z,49.40
2023-03-21T11:56:51.578Z,48.60
2023-03-21T11:59:18.378Z,47.70
2023-03-21T12:02:09.198Z,47.90
2023-03-21T12:04:41.385Z,47.40
2023-03-21T12:07:26.922Z,48.30
2023-03-21T12:10:15.416Z,48.20
2023-03-21T12:12:54.898Z,46.20
2023-03-21T12:15:38.402Z,47.00
2023-03-21T12:18:44.490Z,48.30
2023-03-21T12:21:23.823Z,48.30
2023-03-21T12:24:13.826Z,48.70
2023-03-21T12:27:12.296Z,48.50
2023-03-21T12:30:00.942Z,46.90
2023-03-21T12:32:52.279Z,46.50
2023-03-21T12:35:32.968Z,47.10
2023-03-21T12:38:25.626Z,46.70
2023-03-21T12:41:33.733Z,46.20
2023-03-21T12:44:15.664Z,47.80
2023-03-21T12:46:45.519Z,46.20
2023-03-21T12:49:26.602Z,45.70
2023-03-21T12:51:59.015Z,47.00
2023-03-21T12:54:34.554Z,45.40
2023-03-21T12:57:26.476Z,44.80
2023-03-21T13:00:44.409Z,44.40
2023-03-21T13:03:30.236Z,44.80
2023-03-21T13:06:06.263Z,44.50
2023-03-21T13:08:38.637Z,44.40
2023-03-21T13:11:07.585Z,44.40
2023-03-21T13:13:37.486Z,43.80
2023-03-21T13:16:16.212Z,43.80
2023-03-21T13:18:56.346Z,42.60
2023-03-21T13:21:56.532Z,43.80
2023-03-21T13:24:33.959Z,43.70
2023-03-21T13:27:28.543Z,42.70
2023-03-21T13:30:02.558Z,43.80
2023-03-21T13:32:40.652Z,44.50
2023-03-21T13:35:27.600Z,44.00
2023-03-21T13:38:01.986Z,44.70
2023-03-21T13:40:50.942Z,44.10
2023-03-21T13:43:40.423Z,44.60
2023-03-21T13:46:27.652Z,42.80
2023-03-21T13:49:01.611Z,43.50
2023-03-21T13:51:28.366Z,43.60
2023-03-21T13:54:03.385Z,42.90
2023-03-21T13:56:48.908Z,42.50
2023-03-21T13:59:37.593Z,42.00
2023-03-21T14:02:13.419Z,43.10
2023-03-21T14:04:53.742Z,42.60
2023-03-21T14:07:31.102Z,42.30
2023-03-21T14:10:06.404Z,43.00
2023-03-21T14:12:42.495Z,43.70
2023-03-21T14:15:20.587Z,42.30
2023-03-21T14:17:59.815Z,42.60
2023-03-21T14:20:38.417Z,43.20
2023-03-21T14:23:06.672Z,42.70
2023-03-21T14:25:47.309Z,42.00
2023-03-21T14:28:20.746Z,43.00
2023-03-21T14:30:56.063Z,42.00
2023-03-21T14:33:32.185Z,42.00
2023-03-21T14:36:03.957Z,43.10
2023-03-21T14:38:36.822Z,43.10
2023-03-21T14:41:04.402Z,43.50
2023-03-21T14:43:34.096Z,43.80
2023-03-21T14:46:01.561Z,43.70
2023-03-21T14:48:33.842Z,43.30
2023-03-21T14:51:08.218Z,43.20
2023-03-21T14:53:41.076Z,42.70
2023-03-21T14:56:16.486Z,42.30
2023-03-21T14:58:45.678Z,42.90
2023-03-21T15:01:36.450Z,43.00
2023-03-21T15:04:06.423Z,43.30
2023-03-21T15:06:35.672Z,42.70
2023-03-21T15:09:04.678Z,43.50
2023-03-21T15:11:34.410Z,42.90
2023-03-21T15:14:05.055Z,42.10
2023-03-21T15:16:32.270Z,42.20
2023-03-21T15:19:02.144Z,42.70
2023-03-21T15:21:32.568Z,42.90
2023-03-21T15:24:15.871Z,43.20
2023-03-21T15:26:47.504Z,42.90
2023-03-21T15:29:16.313Z,43.50
2023-03-21T15:31:44.029Z,43.80
2023-03-21T15:34:24.061Z,43.40
2023-03-21T15:36:57.702Z,44.20
2023-03-21T15:39:27.122Z,44.10
2023-03-21T15:42:06.039Z,43.80
2023-03-21T15:44:35.295Z,44.40
2023-03-21T15:47:02.543Z,44.40
2023-03-21T15:49:34.689Z,44.40
2023-03-21T15:52:04.228Z,44.30
2023-03-21T15:54:56.781Z,44.60
2023-03-21T15:57:30.217Z,46.30
2023-03-21T16:00:21.079Z,45.60
2023-03-21T16:02:49.426Z,45.20
2023-03-21T16:05:26.179Z,44.70
2023-03-21T16:07:53.220Z,45.30
2023-03-21T16:10:33.653Z,45.50
2023-03-21T16:13:01.017Z,44.80
2023-03-21T16:15:28.348Z,44.80
2023-03-21T16:17:57.922Z,45.60
2023-03-21T16:20:27.927Z,46.00
2023-03-21T16:22:55.097Z,45.60
2023-03-21T16:25:22.595Z,45.90
2023-03-21T16:27:49.685Z,46.30
2023-03-21T16:30:20.158Z,46.70
2023-03-21T16:32:48.291Z,46.50
2023-03-21T16:35:15.339Z,47.00
2023-03-21T16:37:42.898Z,47.10
2023-03-21T16:40:17.222Z,46.80
2023-03-21T16:42:45.397Z,47.10
2023-03-21T16:45:12.413Z,47.20
2023-03-21T16:47:40.091Z,48.40
2023-03-21T16:50:21.833Z,47.70
2023-03-21T16:52:49.073Z,48.10
2023-03-21T16:55:16.026Z,48.40
2023-03-21T16:57:44.260Z,48.30
2023-03-21T17:00:14.074Z,48.40
2023-03-21T17:02:41.016Z,48.60
2023-03-21T17:05:08.060Z,49.00
2023-03-21T17:07:34.887Z,48.80
2023-03-21T17:10:01.701Z,48.80
2023-03-21T17:12:28.582Z,48.60
2023-03-21T17:14:55.442Z,48.70
2023-03-21T17:17:22.375Z,49.00
2023-03-21T17:19:49.621Z,49.00
2023-03-21T17:22:16.742Z,49.20
2023-03-21T17:24:44.069Z,49.70
2023-03-21T17:27:18.238Z,50.10
2023-03-21T17:29:45.287Z,50.20
2023-03-21T17:32:12.134Z,50.20
2023-03-21T17:34:38.947Z,50.50
2023-03-21T17:37:05.991Z,51.00
2023-03-21T17:39:33.062Z,51.80
2023-03-21T17:41:59.879Z,52.40
2023-03-21T17:44:26.760Z,52.90
2023-03-21T17:46:53.565Z,53.10
2023-03-21T17:49:21.181Z,53.80
2023-03-21T17:51:48.416Z,54.40
2023-03-21T17:54:15.349Z,55.00
2023-03-21T17:56:42.311Z,55.60
2023-03-21T17:59:12.773Z,55.80
2023-03-21T18:01:39.698Z,56.30
2023-03-21T18:04:07.128Z,57.00
2023-03-21T18:06:36.126Z,57.60
2023-03-21T18:09:07.183Z,57.90
2023-03-21T18:11:34.380Z,58.20
2023-03-21T18:14:15.018Z,59.10
2023-03-21T18:16:43.339Z,60.10
2023-03-21T18:19:12.879Z,60.50
2023-03-21T18:21:45.365Z,60.80
2023-03-21T18:24:13.563Z,61.60
2023-03-21T18:26:41.043Z,61.90
2023-03-21T18:32:05.831Z,62.30
2023-03-21T18:34:33.427Z,62.50
2023-03-21T18:37:03.739Z,62.90
2023-03-21T18:39:32.165Z,63.20
2023-03-21T18:42:05.034Z,63.90
2023-03-21T18:44:38.604Z,64.60
2023-03-21T18:47:09.341Z,65.30
2023-03-21T18:50:10.689Z,65.50
2023-03-21T18:52:23.594Z,65.80
2023-03-21T18:54:50.640Z,67.00
2023-03-21T18:57:35.721Z,68.10
2023-03-21T19:00:11.136Z,68.80
2023-03-21T19:02:43.194Z,70.20
2023-03-21T19:05:13.734Z,70.70
2023-03-21T19:07:40.651Z,71.50
2023-03-21T19:10:23.324Z,73.90
2023-03-21T19:12:52.471Z,73.90
2023-03-21T19:15:21.689Z,75.00
2023-03-21T19:20:42.509Z,73.80
2023-03-21T19:23:10.746Z,74.40
2023-03-21T19:25:38.188Z,76.00
2023-03-21T19:28:05.604Z,77.00
2023-03-21T19:30:32.447Z,77.70
2023-03-21T19:32:59.230Z,77.90
2023-03-21T19:35:27.120Z,77.90
2023-03-21T19:37:54.236Z,77.90
2023-03-21T19:40:21.481Z,78.40
2023-03-21T19:42:48.352Z,78.70
2023-03-21T19:45:15.299Z,78.50
2023-03-21T19:47:42.263Z,79.40
2023-03-21T19:52:57.417Z,80.40
2023-03-21T19:55:25.132Z,80.50
2023-03-21T19:57:53.620Z,80.30
2023-03-21T20:00:21.686Z,81.70
2023-03-21T20:02:48.768Z,82.00
2023-03-21T20:05:17.852Z,82.20
2023-03-21T20:07:44.865Z,82.90
2023-03-21T20:10:12.057Z,82.90
2023-03-21T20:12:39.208Z,83.40
2023-03-21T20:15:17.250Z,83.60
2023-03-21T20:17:46.544Z,83.90
2023-03-21T20:20:16.958Z,85.70
2023-03-21T20:25:33.799Z,87.00
2023-03-21T20:28:15.140Z,86.50
2023-03-21T20:30:56.771Z,86.50
2023-03-21T20:33:24.086Z,86.70
2023-03-21T20:38:46.924Z,88.50
2023-03-21T20:41:14.336Z,87.70
2023-03-21T20:46:28.673Z,89.90
2023-03-21T20:48:55.558Z,90.90
2023-03-21T20:54:11.059Z,91.00
2023-03-21T20:56:38.220Z,91.30
2023-03-21T20:59:17.669Z,91.50
2023-03-21T21:01:51.109Z,92.10
2023-03-21T21:04:20.140Z,92.10
2023-03-21T21:06:48.335Z,92.60
2023-03-21T21:09:15.853Z,92.60
2023-03-21T21:14:29.923Z,93.40
2023-03-21T21:16:56.931Z,93.90
2023-03-21T21:19:23.811Z,94.10
2023-03-21T21:21:50.787Z,95.30
2023-03-21T21:24:17.594Z,95.30
2023-03-21T21:26:46.377Z,96.00
2023-03-21T21:29:16.854Z,96.70
2023-03-21T21:31:51.300Z,97.30
2023-03-21T21:34:19.906Z,97.70
2023-03-21T21:36:47.408Z,98.20
2023-03-21T21:39:15.660Z,98.50
2023-03-21T21:41:43.330Z,98.50
2023-03-21T21:44:11.027Z,98.50
2023-03-21T21:46:38.079Z,98.20
2023-03-21T21:49:05.228Z,98.10
2023-03-21T21:51:34.000Z,98.70
2023-03-21T21:54:03.852Z,98.30
2023-03-21T21:56:32.179Z,98.50
2023-03-21T21:59:02.693Z,98.40
2023-03-21T22:01:30.682Z,98.30
2023-03-21T22:04:06.111Z,98.20
2023-03-21T22:06:34.004Z,98.50
2023-03-21T22:09:01.175Z,98.80
2023-03-21T22:11:28.099Z,98.60
2023-03-21T22:13:55.014Z,98.50
2023-03-21T22:16:21.999Z,98.70
2023-03-21T22:18:48.967Z,99.10
2023-03-21T22:21:15.926Z,99.20
2023-03-21T22:23:42.956Z,99.40
2023-03-21T22:26:10.732Z,99.30
2023-03-21T22:28:40.533Z,99.00
2023-03-21T22:31:14.465Z,98.80
2023-03-21T22:33:45.074Z,98.60
2023-03-21T22:36:12.343Z,98.50
2023-03-21T22:38:42.165Z,98.30
2023-03-21T22:41:09.188Z,98.50
2023-03-21T22:43:36.142Z,98.90
2023-03-21T22:46:04.512Z,99.50
2023-03-21T22:48:32.298Z,99.30
2023-03-21T22:51:00.725Z,99.00
2023-03-21T22:53:28.305Z,98.90
2023-03-21T22:55:58.639Z,99.40
2023-03-21T22:58:25.899Z,99.90
2023-03-21T23:00:52.888Z,99.80
2023-03-21T23:03:20.167Z,99.90
2023-03-21T23:05:47.076Z,99.90
2023-03-21T23:08:14.406Z,99.90
2023-03-21T23:10:43.890Z,99.90
2023-03-21T23:13:11.148Z,99.90
2023-03-21T23:15:41.260Z,99.90
2023-03-21T23:18:08.572Z,99.90
2023-03-21T23:20:35.836Z,99.90
2023-03-21T23:23:03.094Z,99.90
2023-03-21T23:25:30.554Z,99.90
2023-03-21T23:27:57.832Z,99.90
2023-03-21T23:30:24.991Z,99.90
2023-03-21T23:32:52.234Z,99.90
2023-03-21T23:35:19.272Z,99.90
2023-03-21T23:37:52.778Z,99.90
2023-03-21T23:40:21.247Z,99.90
2023-03-21T23:42:48.304Z,99.90
2023-03-21T23:45:15.731Z,99.90
2023-03-21T23:47:42.874Z,99.90
2023-03-21T23:50:11.189Z,99.90
2023-03-21T23:52:38.866Z,99.90
2023-03-21T23:55:06.440Z,99.90
2023-03-21T23:57:33.414Z,99.90
